createdAt,value
2023-03-08T00:01:00.615Z,66.73
2023-03-08T00:03:04.800Z,66.01
2023-03-08T00:05:08.169Z,65.85
2023-03-08T00:07:10.876Z,66.04
2023-03-08T00:09:13.497Z,65.98
2023-03-08T00:11:18.008Z,66.32
2023-03-08T00:13:20.706Z,65.91
2023-03-08T00:15:23.398Z,66.21
2023-03-08T00:17:26.249Z,66.17
2023-03-08T00:19:28.874Z,66.39
2023-03-08T00:21:31.459Z,66.58
2023-03-08T00:23:34.116Z,66.65
2023-03-08T00:25:36.775Z,66.72
2023-03-08T00:27:40.756Z,66.78
2023-03-08T00:29:43.375Z,66.32
2023-03-08T00:31:46.038Z,66.79
2023-03-08T00:33:48.891Z,66.35
2023-03-08T00:36:02.011Z,66.75
2023-03-08T00:38:04.768Z,66.71
2023-03-08T00:40:09.843Z,67.01
2023-03-08T00:42:12.417Z,66.75
2023-03-08T00:44:16.398Z,67.08
2023-03-08T00:46:19.162Z,67.39
2023-03-08T00:48:22.365Z,67.20
2023-03-08T00:50:24.925Z,66.87
2023-03-08T00:52:27.531Z,67.38
2023-03-08T00:54:30.630Z,67.96
2023-03-08T00:56:33.253Z,67.79
2023-03-08T00:58:38.511Z,67.90
2023-03-08T01:00:44.541Z,67.93
2023-03-08T01:02:47.228Z,68.11
2023-03-08T01:04:49.925Z,68.63
2023-03-08T01:06:52.616Z,69.00
2023-03-08T01:08:55.215Z,69.08
2023-03-08T01:11:00.422Z,69.57
2023-03-08T01:13:03.332Z,69.41
2023-03-08T01:15:07.741Z,70.35
2023-03-08T01:17:11.729Z,69.72
2023-03-08T01:19:14.325Z,69.71
2023-03-08T01:21:17.265Z,69.92
2023-03-08T01:23:19.871Z,70.43
2023-03-08T01:25:22.558Z,70.37
2023-03-08T01:27:25.248Z,70.89
2023-03-08T01:29:28.148Z,70.82
2023-03-08T01:31:31.818Z,71.07
2023-03-08T01:33:36.099Z,71.21
2023-03-08T01:35:39.115Z,71.73
2023-03-08T01:37:41.961Z,71.84
2023-03-08T01:39:44.823Z,71.37
2023-03-08T01:41:47.506Z,71.51
2023-03-08T01:43:50.359Z,71.81
2023-03-08T01:46:09.380Z,71.92
2023-03-08T01:48:13.866Z,72.27
2023-03-08T01:50:17.920Z,72.24
2023-03-08T01:52:26.344Z,72.75
2023-03-08T01:54:33.971Z,72.60
2023-03-08T01:56:38.473Z,73.16
2023-03-08T01:58:42.814Z,72.90
2023-03-08T02:00:45.510Z,72.99
2023-03-08T02:02:52.978Z,73.20
2023-03-08T02:04:55.558Z,73.30
2023-03-08T02:07:00.026Z,73.37
2023-03-08T02:09:04.970Z,73.69
2023-03-08T02:11:07.674Z,73.38
2023-03-08T02:13:11.571Z,73.15
2023-03-08T02:15:18.321Z,73.19
2023-03-08T02:17:20.994Z,73.30
2023-03-08T02:19:28.550Z,73.08
2023-03-08T02:21:33.133Z,72.88
2023-03-08T02:23:37.073Z,72.43
2023-03-08T02:25:40.335Z,72.58
2023-03-08T02:27:43.362Z,72.85
2023-03-08T02:29:46.042Z,72.67
2023-03-08T02:31:48.676Z,73.03
2023-03-08T02:33:51.292Z,73.07
2023-03-08T02:35:54.423Z,73.02
2023-03-08T02:37:57.335Z,72.95
2023-03-08T02:40:01.412Z,72.89
2023-03-08T02:42:04.076Z,72.81
2023-03-08T02:44:06.826Z,73.32
2023-03-08T02:46:12.055Z,73.05
2023-03-08T02:48:16.172Z,72.94
2023-03-08T02:50:19.046Z,73.08
2023-03-08T02:52:22.868Z,73.25
2023-03-08T02:54:25.491Z,73.35
2023-03-08T02:56:29.545Z,72.95
2023-03-08T02:58:32.138Z,73.04
2023-03-08T03:00:35.426Z,72.72
2023-03-08T03:02:38.378Z,73.04
2023-03-08T03:04:41.054Z,73.34
2023-03-08T03:06:43.640Z,72.78
2023-03-08T03:08:46.791Z,72.63
2023-03-08T03:10:49.412Z,72.48
2023-03-08T03:12:53.415Z,72.63
2023-03-08T03:14:55.994Z,72.53
2023-03-08T03:17:00.377Z,72.12
2023-03-08T03:19:03.011Z,72.26
2023-03-08T03:21:06.933Z,72.61
2023-03-08T03:23:09.667Z,72.64
2023-03-08T03:25:12.302Z,72.47
2023-03-08T03:27:14.962Z,72.28
2023-03-08T03:29:19.430Z,72.40
2023-03-08T03:31:24.602Z,72.05
2023-03-08T03:33:27.409Z,72.82
2023-03-08T03:35:29.978Z,72.86
2023-03-08T03:37:35.418Z,71.98
2023-03-08T03:39:39.097Z,72.22
2023-03-08T03:41:41.697Z,72.44
2023-03-08T03:43:44.584Z,72.56
2023-03-08T03:45:57.651Z,72.40
2023-03-08T03:48:00.502Z,72.58
2023-03-08T03:50:03.206Z,72.21
2023-03-08T03:52:06.344Z,72.47
2023-03-08T03:54:09.008Z,72.07
2023-03-08T03:56:14.884Z,72.15
2023-03-08T03:58:17.916Z,71.78
2023-03-08T04:00:22.047Z,71.93
2023-03-08T04:02:26.077Z,72.27
2023-03-08T04:04:28.673Z,72.14
2023-03-08T04:06:33.633Z,72.19
2023-03-08T04:08:41.950Z,72.13
2023-03-08T04:10:44.755Z,72.57
2023-03-08T04:12:49.321Z,72.45
2023-03-08T04:14:51.993Z,72.82
2023-03-08T04:16:54.633Z,72.69
2023-03-08T04:19:00.577Z,72.78
2023-03-08T04:21:03.156Z,72.96
2023-03-08T04:23:05.772Z,73.01
2023-03-08T04:25:09.126Z,72.55
2023-03-08T04:27:11.722Z,72.59
2023-03-08T04:29:14.395Z,72.46
2023-03-08T04:31:19.631Z,72.87
2023-03-08T04:33:22.414Z,72.59
2023-03-08T04:35:26.375Z,72.49
2023-03-08T04:37:29.033Z,72.16
2023-03-08T04:39:31.919Z,72.68
2023-03-08T04:41:34.509Z,72.77
2023-03-08T04:43:37.685Z,72.96
2023-03-08T04:45:40.337Z,73.14
2023-03-08T04:47:42.962Z,73.17
2023-03-08T04:49:45.609Z,73.42
2023-03-08T04:51:49.585Z,72.82
2023-03-08T04:53:52.194Z,72.37
2023-03-08T04:55:55.647Z,72.42
2023-03-08T04:57:58.283Z,72.55
2023-03-08T05:00:00.866Z,72.90
2023-03-08T05:02:04.277Z,72.95
2023-03-08T05:04:06.901Z,72.41
2023-03-08T05:06:09.750Z,72.57
2023-03-08T05:08:13.709Z,72.56
2023-03-08T05:10:16.885Z,72.87
2023-03-08T05:12:20.113Z,72.13
2023-03-08T05:14:22.691Z,72.00
2023-03-08T05:16:26.141Z,72.09
2023-03-08T05:18:29.102Z,72.50
2023-03-08T05:20:31.688Z,72.07
2023-03-08T05:22:45.007Z,72.04
2023-03-08T05:24:55.598Z,72.01
2023-03-08T05:26:58.206Z,72.38
2023-03-08T05:29:03.374Z,72.13
2023-03-08T05:31:07.805Z,72.16
2023-03-08T05:33:10.409Z,72.11
2023-03-08T05:35:13.013Z,71.59
2023-03-08T05:37:15.669Z,71.62
2023-03-08T05:39:18.313Z,71.30
2023-03-08T05:41:22.638Z,71.87
2023-03-08T05:43:25.225Z,71.92
2023-03-08T05:45:27.980Z,71.63
2023-03-08T05:47:31.213Z,72.10
2023-03-08T05:49:33.753Z,71.75
2023-03-08T05:51:36.377Z,71.44
2023-03-08T05:53:39.798Z,71.80
2023-03-08T05:55:42.457Z,71.50
2023-03-08T05:57:46.506Z,71.41
2023-03-08T05:59:49.084Z,71.42
2023-03-08T06:01:51.726Z,71.61
2023-03-08T06:03:56.368Z,71.83
2023-03-08T06:05:58.983Z,71.88
2023-03-08T06:08:01.797Z,72.33
2023-03-08T06:10:05.897Z,71.85
2023-03-08T06:12:08.941Z,72.23
2023-03-08T06:14:13.398Z,72.38
2023-03-08T06:16:16.173Z,72.51
2023-03-08T06:18:18.821Z,72.51
2023-03-08T06:20:21.788Z,73.29
2023-03-08T06:22:24.429Z,72.62
2023-03-08T06:24:27.103Z,73.33
2023-03-08T06:26:29.771Z,73.18
2023-03-08T06:28:32.633Z,72.61
2023-03-08T06:30:36.690Z,72.85
2023-03-08T06:32:39.427Z,72.98
2023-03-08T06:34:42.209Z,73.11
2023-03-08T06:36:44.832Z,73.28
2023-03-08T06:38:48.580Z,73.14
2023-03-08T06:40:51.293Z,72.88
2023-03-08T06:42:53.929Z,73.28
2023-03-08T06:44:56.497Z,73.06
2023-03-08T06:47:00.496Z,72.64
2023-03-08T06:49:04.255Z,72.76
2023-03-08T06:51:07.068Z,72.10
2023-03-08T06:53:10.383Z,71.65
2023-03-08T06:55:13.091Z,71.80
2023-03-08T06:57:15.649Z,71.81
2023-03-08T06:59:18.251Z,71.52
2023-03-08T07:01:21.017Z,71.71
2023-03-08T07:03:25.350Z,71.50
2023-03-08T07:05:28.630Z,70.71
2023-03-08T07:07:31.354Z,70.81
2023-03-08T07:09:34.052Z,70.90
2023-03-08T07:11:38.754Z,71.17
2023-03-08T07:13:41.492Z,71.71
2023-03-08T07:15:44.206Z,71.80
2023-03-08T07:17:47.673Z,71.45
2023-03-08T07:19:51.705Z,71.73
2023-03-08T07:21:54.421Z,71.37
2023-03-08T07:23:57.094Z,71.63
2023-03-08T07:25:59.856Z,72.45
2023-03-08T07:28:02.498Z,72.43
2023-03-08T07:30:06.545Z,72.30
2023-03-08T07:32:09.421Z,72.56
2023-03-08T07:34:12.892Z,72.44
2023-03-08T07:36:16.936Z,72.52
2023-03-08T07:38:20.138Z,72.95
2023-03-08T07:40:22.844Z,72.33
2023-03-08T07:42:27.251Z,72.97
2023-03-08T07:44:29.869Z,73.22
2023-03-08T07:46:32.590Z,72.70
2023-03-08T07:48:35.211Z,73.87
2023-03-08T07:50:38.141Z,74.58
2023-03-08T07:52:42.130Z,75.79
2023-03-08T07:54:44.959Z,77.09
2023-03-08T07:56:47.695Z,77.96
2023-03-08T07:58:50.266Z,79.19
2023-03-08T08:00:52.893Z,80.02
2023-03-08T08:02:55.565Z,80.56
2023-03-08T08:04:58.222Z,80.33
2023-03-08T08:07:00.868Z,80.93
2023-03-08T08:09:05.092Z,81.24
2023-03-08T08:11:14.391Z,81.77
2023-03-08T08:13:17.005Z,81.94
2023-03-08T08:15:19.672Z,81.48
2023-03-08T08:17:23.236Z,81.34
2023-03-08T08:19:26.335Z,81.36
2023-03-08T08:21:29.277Z,80.93
2023-03-08T08:23:32.956Z,80.54
2023-03-08T08:25:36.881Z,80.72
2023-03-08T08:27:39.464Z,80.44
2023-03-08T08:29:44.013Z,80.44
2023-03-08T08:31:46.676Z,80.52
2023-03-08T08:33:49.632Z,79.32
2023-03-08T08:35:52.240Z,79.77
2023-03-08T08:37:54.860Z,79.81
2023-03-08T08:39:57.529Z,78.99
2023-03-08T08:42:01.551Z,76.82
2023-03-08T08:44:04.640Z,77.30
2023-03-08T08:46:07.297Z,78.35
2023-03-08T08:48:09.951Z,78.50
2023-03-08T08:50:14.116Z,77.57
2023-03-08T08:52:16.884Z,76.82
2023-03-08T08:54:19.542Z,78.12
2023-03-08T08:56:28.030Z,77.36
2023-03-08T08:58:32.455Z,78.24
2023-03-08T09:00:36.104Z,78.82
2023-03-08T09:02:38.800Z,77.47
2023-03-08T09:04:41.598Z,77.23
2023-03-08T09:06:44.465Z,78.54
2023-03-08T09:08:49.570Z,77.29
2023-03-08T09:10:52.197Z,76.78
2023-03-08T09:12:56.131Z,75.56
2023-03-08T09:15:01.233Z,74.27
2023-03-08T09:17:06.550Z,74.55
2023-03-08T09:19:09.310Z,75.27
2023-03-08T09:21:12.105Z,75.46
2023-03-08T09:23:14.756Z,76.29
2023-03-08T09:25:19.522Z,75.64
2023-03-08T09:27:22.168Z,76.32
2023-03-08T09:29:24.777Z,76.25
2023-03-08T09:31:28.857Z,75.98
2023-03-08T09:33:32.387Z,76.38
2023-03-08T09:35:35.052Z,76.43
2023-03-08T09:37:38.018Z,75.67
2023-03-08T09:39:41.100Z,76.57
2023-03-08T09:41:50.813Z,76.21
2023-03-08T09:44:05.648Z,76.70
2023-03-08T09:46:13.955Z,75.85
2023-03-08T09:48:24.814Z,76.02
2023-03-08T09:50:35.867Z,74.92
2023-03-08T09:52:41.692Z,76.23
2023-03-08T09:54:46.251Z,76.66
2023-03-08T09:56:51.138Z,77.03
2023-03-08T09:58:56.841Z,75.46
2023-03-08T10:01:05.789Z,76.12
2023-03-08T10:03:30.446Z,75.87
2023-03-08T10:05:37.412Z,76.42
2023-03-08T10:07:49.627Z,76.86
2023-03-08T10:10:03.072Z,77.14
2023-03-08T10:12:16.587Z,76.08
2023-03-08T10:14:23.065Z,75.98
2023-03-08T10:16:28.282Z,76.81
2023-03-08T10:18:39.007Z,77.53
2023-03-08T10:20:42.966Z,77.59
2023-03-08T10:22:50.465Z,77.90
2023-03-08T10:24:58.149Z,78.39
2023-03-08T10:27:07.622Z,79.00
2023-03-08T10:29:12.225Z,81.35
2023-03-08T10:31:22.488Z,84.03
2023-03-08T10:33:28.082Z,86.39
2023-03-08T10:35:37.615Z,86.92
2023-03-08T10:37:40.714Z,87.45
2023-03-08T10:39:53.345Z,88.64
2023-03-08T10:41:57.718Z,88.80
2023-03-08T10:44:01.345Z,89.00
2023-03-08T10:46:06.438Z,89.35
2023-03-08T10:48:21.200Z,89.15
2023-03-08T10:50:26.362Z,87.82
2023-03-08T10:52:30.442Z,86.35
2023-03-08T10:54:33.136Z,86.06
2023-03-08T10:56:39.163Z,84.78
2023-03-08T10:58:41.861Z,86.79
2023-03-08T11:00:44.882Z,85.91
2023-03-08T11:02:48.157Z,85.24
2023-03-08T11:04:56.415Z,85.97
2023-03-08T11:06:59.810Z,85.91
2023-03-08T11:09:06.132Z,87.26
2023-03-08T11:11:11.582Z,87.25
2023-03-08T11:13:24.617Z,87.35
2023-03-08T11:15:27.560Z,86.81
2023-03-08T11:17:37.583Z,86.91
2023-03-08T11:19:51.076Z,86.52
2023-03-08T11:22:03.580Z,85.46
2023-03-08T11:24:18.598Z,86.01
2023-03-08T11:26:28.964Z,86.95
2023-03-08T11:28:53.830Z,86.76
2023-03-08T11:31:09.389Z,86.71
2023-03-08T11:33:32.747Z,86.37
2023-03-08T11:35:42.244Z,86.48
2023-03-08T11:37:51.431Z,86.01
2023-03-08T11:40:05.707Z,86.17
2023-03-08T11:42:21.690Z,86.51
2023-03-08T11:44:45.496Z,85.87
2023-03-08T11:46:59.782Z,85.93
2023-03-08T11:49:23.062Z,85.32
2023-03-08T11:51:33.841Z,85.49
2023-03-08T11:53:47.501Z,85.08
2023-03-08T11:56:11.224Z,84.75
2023-03-08T11:58:20.427Z,85.21
2023-03-08T12:00:29.977Z,85.10
2023-03-08T12:02:38.679Z,85.40
2023-03-08T12:04:47.231Z,85.17
2023-03-08T12:06:50.337Z,85.32
2023-03-08T12:08:59.012Z,85.91
2023-03-08T12:11:06.613Z,85.86
2023-03-08T12:13:18.556Z,85.61
2023-03-08T12:15:27.765Z,85.56
2023-03-08T12:17:36.925Z,85.30
2023-03-08T12:19:44.228Z,85.25
2023-03-08T12:21:53.824Z,85.02
2023-03-08T12:24:12.836Z,83.49
2023-03-08T12:26:20.720Z,84.26
2023-03-08T12:28:28.278Z,84.11
2023-03-08T12:30:45.096Z,83.78
2023-03-08T12:32:49.767Z,84.16
2023-03-08T12:35:02.780Z,83.85
2023-03-08T12:37:06.194Z,84.16
2023-03-08T12:39:26.443Z,84.48
2023-03-08T12:41:32.318Z,84.68
2023-03-08T12:43:36.544Z,84.64
2023-03-08T12:45:40.707Z,83.65
2023-03-08T12:47:43.412Z,83.35
2023-03-08T12:49:48.881Z,82.52
2023-03-08T12:52:01.182Z,82.02
2023-03-08T12:54:05.598Z,81.91
2023-03-08T12:56:22.531Z,82.40
2023-03-08T12:58:26.623Z,82.51
2023-03-08T13:00:32.175Z,80.79
2023-03-08T13:02:36.571Z,81.61
2023-03-08T13:04:42.547Z,81.31
2023-03-08T13:07:13.335Z,81.29
2023-03-08T13:09:24.114Z,82.73
2023-03-08T13:11:38.566Z,82.84
2023-03-08T13:13:50.433Z,83.84
2023-03-08T13:16:06.441Z,82.80
2023-03-08T13:18:15.567Z,82.48
2023-03-08T13:20:22.659Z,81.66
2023-03-08T13:22:29.789Z,82.25
2023-03-08T13:24:44.429Z,82.65
2023-03-08T13:27:24.540Z,83.14
2023-03-08T13:29:36.101Z,83.95
2023-03-08T13:31:38.984Z,83.49
2023-03-08T13:33:45.172Z,83.70
2023-03-08T13:35:56.952Z,84.63
2023-03-08T13:38:01.139Z,85.28
2023-03-08T13:40:07.757Z,85.25
2023-03-08T13:42:11.440Z,84.82
2023-03-08T13:44:16.735Z,83.44
2023-03-08T13:46:23.778Z,83.52
2023-03-08T13:48:31.083Z,83.05
2023-03-08T13:50:36.103Z,82.82
2023-03-08T13:52:39.540Z,83.30
2023-03-08T13:54:46.969Z,82.84
2023-03-08T13:56:54.023Z,82.37
2023-03-08T13:59:00.116Z,82.44
2023-03-08T14:01:05.389Z,83.05
2023-03-08T14:03:21.272Z,81.47
2023-03-08T14:05:26.292Z,81.07
2023-03-08T14:07:32.013Z,80.18
2023-03-08T14:09:34.756Z,79.18
2023-03-08T14:11:40.024Z,78.63
2023-03-08T14:13:48.061Z,77.88
2023-03-08T14:15:56.768Z,78.76
2023-03-08T14:18:00.735Z,78.79
2023-03-08T14:20:17.802Z,79.23
2023-03-08T14:22:37.813Z,79.48
2023-03-08T14:24:44.861Z,79.94
2023-03-08T14:26:56.575Z,79.97
2023-03-08T14:29:14.065Z,80.37
2023-03-08T14:31:27.243Z,80.64
2023-03-08T14:33:41.834Z,80.18
2023-03-08T14:35:55.446Z,80.40
2023-03-08T14:37:58.948Z,80.82
2023-03-08T14:40:21.691Z,80.82
2023-03-08T14:42:27.769Z,80.75
2023-03-08T14:44:30.771Z,80.26
2023-03-08T14:46:33.669Z,80.63
2023-03-08T14:48:38.295Z,81.46
2023-03-08T14:50:41.139Z,82.20
2023-03-08T14:52:49.570Z,82.82
2023-03-08T14:54:52.335Z,84.00
2023-03-08T14:56:55.041Z,85.22
2023-03-08T14:59:01.913Z,86.11
2023-03-08T15:01:04.852Z,87.93
2023-03-08T15:03:07.496Z,88.91
2023-03-08T15:05:22.483Z,89.16
2023-03-08T15:07:35.507Z,89.14
2023-03-08T15:09:39.674Z,89.14
2023-03-08T15:11:43.266Z,88.41
2023-03-08T15:13:46.440Z,88.30
2023-03-08T15:15:49.614Z,88.63
2023-03-08T15:17:53.977Z,88.60
2023-03-08T15:19:59.075Z,88.53
2023-03-08T15:22:05.328Z,89.25
2023-03-08T15:24:08.741Z,87.97
2023-03-08T15:26:18.207Z,87.50
2023-03-08T15:28:23.848Z,88.30
2023-03-08T15:30:28.435Z,88.19
2023-03-08T15:32:31.102Z,89.19
2023-03-08T15:34:35.009Z,88.99
2023-03-08T15:36:52.670Z,88.63
2023-03-08T15:38:55.545Z,88.94
2023-03-08T15:40:58.548Z,88.94
2023-03-08T15:43:02.762Z,88.91
2023-03-08T15:45:05.878Z,88.87
2023-03-08T15:47:10.919Z,89.05
2023-03-08T15:49:14.059Z,88.25
2023-03-08T15:51:31.180Z,88.45
2023-03-08T15:53:36.040Z,88.87
2023-03-08T15:55:40.416Z,89.11
2023-03-08T15:57:43.447Z,89.40
2023-03-08T15:59:48.427Z,89.15
2023-03-08T16:01:51.362Z,88.41
2023-03-08T16:03:55.003Z,87.34
2023-03-08T16:05:58.645Z,86.69
2023-03-08T16:08:04.130Z,85.64
2023-03-08T16:10:09.249Z,85.25
2023-03-08T16:12:12.608Z,85.30
2023-03-08T16:14:17.936Z,84.96
2023-03-08T16:16:25.921Z,84.58
2023-03-08T16:18:40.443Z,84.54
2023-03-08T16:20:46.469Z,84.44
2023-03-08T16:22:52.427Z,84.82
2023-03-08T16:24:55.275Z,89.18
2023-03-08T16:26:59.522Z,95.67
2023-03-08T16:29:02.335Z,96.74
2023-03-08T16:31:06.042Z,98.17
2023-03-08T16:33:10.249Z,98.89
2023-03-08T16:35:13.127Z,98.36
2023-03-08T16:37:16.799Z,97.07
2023-03-08T16:39:20.264Z,94.42
2023-03-08T16:41:24.307Z,95.81
2023-03-08T16:43:32.261Z,96.26
2023-03-08T16:45:56.866Z,97.58
2023-03-08T16:47:59.547Z,100.00
2023-03-08T16:50:04.079Z,100.00
2023-03-08T16:52:07.329Z,100.00
2023-03-08T16:54:11.083Z,100.00
2023-03-08T16:56:18.851Z,100.00
2023-03-08T16:58:21.807Z,100.00
2023-03-08T17:00:25.616Z,100.00
2023-03-08T17:02:28.288Z,100.00
2023-03-08T17:04:31.166Z,100.00
2023-03-08T17:06:35.595Z,100.00
2023-03-08T17:08:38.769Z,100.00
2023-03-08T17:10:43.290Z,100.00
2023-03-08T17:12:46.474Z,100.00
2023-03-08T17:14:49.207Z,100.00
2023-03-08T17:16:51.902Z,100.00
2023-03-08T17:18:55.261Z,100.00
2023-03-08T17:20:57.985Z,100.00
2023-03-08T17:23:02.241Z,100.00
2023-03-08T17:25:08.414Z,100.00
2023-03-08T17:27:13.959Z,100.00
2023-03-08T17:29:16.884Z,100.00
2023-03-08T17:31:21.981Z,100.00
2023-03-08T17:33:26.236Z,100.00
2023-03-08T17:35:29.338Z,100.00
2023-03-08T17:37:31.982Z,100.00
2023-03-08T17:39:36.154Z,100.00
2023-03-08T17:41:39.448Z,100.00
2023-03-08T17:43:42.486Z,100.00
2023-03-08T17:45:45.718Z,100.00
2023-03-08T17:47:48.684Z,100.00
2023-03-08T17:49:51.460Z,100.00
2023-03-08T17:51:54.851Z,100.00
2023-03-08T17:53:59.774Z,100.00
2023-03-08T17:56:06.562Z,100.00
2023-03-08T17:58:09.336Z,100.00
2023-03-08T18:00:13.688Z,100.00
2023-03-08T18:02:20.826Z,100.00
2023-03-08T18:04:23.724Z,100.00
2023-03-08T18:06:30.070Z,100.00
2023-03-08T18:08:33.438Z,100.00
2023-03-08T18:10:36.231Z,100.00
2023-03-08T18:12:40.317Z,100.00
2023-03-08T18:14:43.617Z,100.00
2023-03-08T18:16:46.442Z,100.00
2023-03-08T18:18:50.115Z,100.00
2023-03-08T18:20:57.124Z,100.00
2023-03-08T18:23:07.199Z,100.00
2023-03-08T18:25:10.516Z,100.00
2023-03-08T18:27:13.377Z,100.00
2023-03-08T18:29:17.599Z,100.00
2023-03-08T18:31:23.328Z,100.00
2023-03-08T18:33:26.142Z,100.00
2023-03-08T18:35:29.272Z,100.00
2023-03-08T18:37:32.084Z,100.00
2023-03-08T18:39:34.918Z,100.00
2023-03-08T18:41:37.604Z,100.00
2023-03-08T18:43:40.970Z,100.00
2023-03-08T18:45:52.463Z,100.00
2023-03-08T18:47:55.232Z,100.00
2023-03-08T18:49:57.882Z,100.00
2023-03-08T18:52:00.774Z,100.00
2023-03-08T18:54:03.799Z,100.00
2023-03-08T18:56:07.207Z,100.00
2023-03-08T18:58:10.077Z,100.00
2023-03-08T19:00:15.115Z,100.00
2023-03-08T19:02:21.243Z,100.00
2023-03-08T19:04:24.226Z,100.00
2023-03-08T19:06:27.622Z,100.00
2023-03-08T19:08:30.300Z,100.00
2023-03-08T19:10:33.408Z,100.00
2023-03-08T19:12:37.980Z,100.00
2023-03-08T19:14:40.829Z,100.00
2023-03-08T19:16:43.539Z,100.00
2023-03-08T19:18:48.080Z,100.00
2023-03-08T19:20:50.929Z,100.00
2023-03-08T19:22:53.544Z,100.00
2023-03-08T19:24:56.631Z,100.00
2023-03-08T19:27:00.428Z,100.00
2023-03-08T19:29:05.453Z,100.00
2023-03-08T19:31:17.652Z,100.00
2023-03-08T19:33:30.474Z,100.00
2023-03-08T19:35:36.577Z,100.00
2023-03-08T19:37:39.546Z,100.00
2023-03-08T19:39:43.614Z,100.00
2023-03-08T19:41:49.078Z,100.00
2023-03-08T19:43:51.746Z,100.00
2023-03-08T19:45:54.530Z,100.00
2023-03-08T19:47:57.676Z,100.00
2023-03-08T19:50:00.311Z,100.00
2023-03-08T19:52:06.644Z,100.00
2023-03-08T19:54:10.458Z,100.00
2023-03-08T19:56:17.197Z,100.00
2023-03-08T19:58:20.097Z,100.00
2023-03-08T20:00:23.383Z,100.00
2023-03-08T20:02:26.162Z,100.00
2023-03-08T20:04:29.815Z,100.00
2023-03-08T20:06:35.015Z,100.00
2023-03-08T20:08:40.490Z,100.00
2023-03-08T20:10:43.232Z,100.00
2023-03-08T20:12:47.038Z,100.00
2023-03-08T20:14:49.987Z,100.00
2023-03-08T20:16:52.622Z,100.00
2023-03-08T20:18:57.495Z,100.00
2023-03-08T20:21:02.188Z,100.00
2023-03-08T20:23:05.163Z,100.00
2023-03-08T20:25:11.800Z,100.00
2023-03-08T20:27:14.406Z,100.00
2023-03-08T20:29:17.780Z,100.00
2023-03-08T20:31:21.000Z,100.00
2023-03-08T20:33:23.733Z,100.00
2023-03-08T20:35:26.667Z,100.00
2023-03-08T20:37:29.370Z,100.00
2023-03-08T20:39:32.369Z,100.00
2023-03-08T20:41:36.425Z,100.00
2023-03-08T20:43:40.302Z,100.00
2023-03-08T20:45:43.085Z,100.00
2023-03-08T20:47:46.582Z,100.00
2023-03-08T20:49:49.853Z,100.00
2023-03-08T20:51:52.642Z,100.00
2023-03-08T20:53:58.620Z,100.00
2023-03-08T20:56:06.066Z,100.00
2023-03-08T20:58:10.219Z,100.00
2023-03-08T21:00:14.506Z,100.00
2023-03-08T21:02:17.383Z,100.00
2023-03-08T21:04:20.463Z,100.00
2023-03-08T21:06:25.492Z,100.00
2023-03-08T21:08:28.422Z,100.00
2023-03-08T21:10:32.879Z,100.00
2023-03-08T21:12:37.628Z,100.00
2023-03-08T21:14:43.208Z,100.00
2023-03-08T21:16:46.120Z,100.00
2023-03-08T21:18:50.296Z,100.00
2023-03-08T21:20:53.673Z,100.00
2023-03-08T21:22:56.456Z,100.00
2023-03-08T21:24:59.134Z,100.00
2023-03-08T21:27:01.851Z,100.00
2023-03-08T21:29:06.676Z,100.00
2023-03-08T21:31:11.887Z,100.00
2023-03-08T21:33:14.623Z,100.00
2023-03-08T21:35:17.304Z,100.00
2023-03-08T21:37:19.957Z,100.00
2023-03-08T21:39:22.845Z,100.00
2023-03-08T21:41:28.210Z,100.00
2023-03-08T21:43:30.938Z,100.00
2023-03-08T21:45:33.881Z,100.00
2023-03-08T21:47:38.070Z,100.00
2023-03-08T21:49:40.894Z,100.00
2023-03-08T21:51:43.539Z,100.00
2023-03-08T21:53:46.354Z,100.00
2023-03-08T21:55:49.017Z,100.00
2023-03-08T21:57:51.842Z,100.00
2023-03-08T21:59:54.588Z,100.00
2023-03-08T22:01:58.693Z,100.00
2023-03-08T22:04:04.169Z,100.00
2023-03-08T22:06:07.330Z,100.00
2023-03-08T22:08:10.088Z,100.00
2023-03-08T22:10:14.221Z,100.00
2023-03-08T22:12:19.862Z,100.00
2023-03-08T22:14:22.589Z,100.00
2023-03-08T22:16:26.674Z,100.00
2023-03-08T22:18:29.606Z,100.00
2023-03-08T22:20:33.818Z,100.00
2023-03-08T22:22:36.800Z,100.00
2023-03-08T22:24:39.673Z,100.00
2023-03-08T22:26:42.687Z,100.00
2023-03-08T22:28:45.541Z,100.00
2023-03-08T22:30:48.595Z,100.00
2023-03-08T22:32:51.781Z,100.00
2023-03-08T22:34:54.454Z,100.00
2023-03-08T22:36:58.742Z,100.00
2023-03-08T22:39:01.834Z,100.00
2023-03-08T22:41:10.432Z,100.00
2023-03-08T22:43:13.294Z,100.00
2023-03-08T22:45:16.460Z,100.00
2023-03-08T22:47:19.299Z,100.00
2023-03-08T22:49:22.070Z,100.00
2023-03-08T22:51:25.578Z,100.00
2023-03-08T22:53:29.650Z,100.00
2023-03-08T22:55:32.265Z,100.00
2023-03-08T22:57:37.177Z,100.00
2023-03-08T22:59:39.850Z,100.00
2023-03-08T23:01:42.853Z,100.00
2023-03-08T23:03:46.216Z,100.00
2023-03-08T23:05:49.007Z,100.00
2023-03-08T23:07:53.230Z,100.00
2023-03-08T23:09:57.483Z,100.00
2023-03-08T23:12:02.694Z,100.00
2023-03-08T23:14:06.361Z,100.00
2023-03-08T23:16:09.575Z,100.00
2023-03-08T23:18:12.335Z,100.00
2023-03-08T23:20:19.826Z,100.00
2023-03-08T23:22:22.517Z,100.00
2023-03-08T23:24:25.296Z,100.00
2023-03-08T23:26:29.579Z,100.00
2023-03-08T23:28:35.214Z,100.00
2023-03-08T23:30:38.160Z,100.00
2023-03-08T23:32:42.535Z,100.00
2023-03-08T23:34:45.237Z,100.00
2023-03-08T23:36:48.044Z,100.00
2023-03-08T23:38:51.408Z,100.00
2023-03-08T23:40:54.118Z,100.00
2023-03-08T23:42:58.317Z,100.00
2023-03-08T23:45:01.149Z,100.00
2023-03-08T23:47:03.782Z,100.00
2023-03-08T23:49:06.581Z,100.00
2023-03-08T23:51:12.213Z,100.00
2023-03-08T23:53:14.933Z,100.00
2023-03-08T23:55:17.584Z,100.00
2023-03-08T23:57:20.653Z,100.00
2023-03-08T23:59:25.194Z,100.00
